sensor_id;sensor_type;location;lat;lon;timestamp;temperature;humidity
25963;DHT22;13760;52.588;13.406;2023-10-19T00:00:05;7.20;99.90
25963;DHT22;13760;52.588;13.406;2023-10-19T00:02:46;7.20;99.90
25963;DHT22;13760;52.588;13.406;2023-10-19T00:05:11;7.10;99.90
25963;DHT22;13760;52.588;13.406;2023-10-19T00:07:39;7.10;99.90
25963;DHT22;13760;52.588;13.406;2023-10-19T00:10:06;7.10;99.90
25963;DHT22;13760;52.588;13.406;2023-10-19T00:12:31;7.10;99.90
25963;DHT22;13760;52.588;13.406;2023-10-19T00:14:58;7.10;99.90
25963;DHT22;13760;52.588;13.406;2023-10-19T00:17:24;7.10;99.90
25963;DHT22;13760;52.588;13.406;2023-10-19T00:19:52;7.10;99.90
25963;DHT22;13760;52.588;13.406;2023-10-19T00:22:43;7.10;99.90
25963;DHT22;13760;52.588;13.406;2023-10-19T00:25:09;7.10;99.90
25963;DHT22;13760;52.588;13.406;2023-10-19T00:27:39;7.10;99.90
25963;DHT22;13760;52.588;13.406;2023-10-19T00:30:06;7.00;99.90
25963;DHT22;13760;52.588;13.406;2023-10-19T00:32:32;7.00;99.90
25963;DHT22;13760;52.588;13.406;2023-10-19T00:34:59;7.00;99.90
25963;DHT22;13760;52.588;13.406;2023-10-19T00:37:44;7.00;99.90
25963;DHT22;13760;52.588;13.406;2023-10-19T00:40:11;7.00;99.90
25963;DHT22;13760;52.588;13.406;2023-10-19T00:42:52;7.00;99.90
25963;DHT22;13760;52.588;13.406;2023-10-19T00:45:20;7.00;99.90
25963;DHT22;13760;52.588;13.406;2023-10-19T00:47:51;7.00;99.90
25963;DHT22;13760;52.588;13.406;2023-10-19T00:50:18;7.00;99.90
25963;DHT22;13760;52.588;13.406;2023-10-19T00:52:48;6.90;99.90
25963;DHT22;13760;52.588;13.406;2023-10-19T00:55:18;7.00;99.90
25963;DHT22;13760;52.588;13.406;2023-10-19T00:57:46;6.90;99.90
25963;DHT22;13760;52.588;13.406;2023-10-19T01:00:14;6.90;99.90
25963;DHT22;13760;52.588;13.406;2023-10-19T01:03:00;6.90;99.90
25963;DHT22;13760;52.588;13.406;2023-10-19T01:05:26;6.90;99.90
25963;DHT22;13760;52.588;13.406;2023-10-19T01:08:01;6.90;99.90
25963;DHT22;13760;52.588;13.406;2023-10-19T01:10:28;6.90;99.90
25963;DHT22;13760;52.588;13.406;2023-10-19T01:12:54;6.90;99.90
25963;DHT22;13760;52.588;13.406;2023-10-19T01:15:21;6.90;99.90
25963;DHT22;13760;52.588;13.406;2023-10-19T01:17:54;6.90;99.90
25963;DHT22;13760;52.588;13.406;2023-10-19T01:20:27;6.90;99.90
25963;DHT22;13760;52.588;13.406;2023-10-19T01:23:06;6.90;99.90
25963;DHT22;13760;52.588;13.406;2023-10-19T01:28:09;6.90;99.90
25963;DHT22;13760;52.588;13.406;2023-10-19T01:30:37;6.90;99.90
25963;DHT22;13760;52.588;13.406;2023-10-19T01:33:04;6.90;99.90
25963;DHT22;13760;52.588;13.406;2023-10-19T01:35:33;6.90;99.90
25963;DHT22;13760;52.588;13.406;2023-10-19T01:38:18;6.90;99.90
25963;DHT22;13760;52.588;13.406;2023-10-19T01:40:43;6.90;99.90
25963;DHT22;13760;52.588;13.406;2023-10-19T01:43:12;6.90;99.90
25963;DHT22;13760;52.588;13.406;2023-10-19T01:45:52;6.80;99.90
25963;DHT22;13760;52.588;13.406;2023-10-19T01:48:20;6.80;99.90
25963;DHT22;13760;52.588;13.406;2023-10-19T01:50:48;6.80;99.90
25963;DHT22;13760;52.588;13.406;2023-10-19T01:53:16;6.90;99.90
25963;DHT22;13760;52.588;13.406;2023-10-19T01:55:44;6.80;99.90
25963;DHT22;13760;52.588;13.406;2023-10-19T01:58:12;6.80;99.90
25963;DHT22;13760;52.588;13.406;2023-10-19T02:00:40;6.80;99.90
25963;DHT22;13760;52.588;13.406;2023-10-19T02:03:08;6.80;99.90
25963;DHT22;13760;52.588;13.406;2023-10-19T02:05:34;6.80;99.90
25963;DHT22;13760;52.588;13.406;2023-10-19T02:08:07;6.90;99.90
25963;DHT22;13760;52.588;13.406;2023-10-19T02:10:34;6.80;99.90
25963;DHT22;13760;52.588;13.406;2023-10-19T02:13:01;6.80;99.90
25963;DHT22;13760;52.588;13.406;2023-10-19T02:15:34;6.80;99.90
25963;DHT22;13760;52.588;13.406;2023-10-19T02:18:03;6.80;99.90
25963;DHT22;13760;52.588;13.406;2023-10-19T02:20:29;6.80;99.90
25963;DHT22;13760;52.588;13.406;2023-10-19T02:22:57;6.90;99.90
25963;DHT22;13760;52.588;13.406;2023-10-19T02:25:24;6.90;99.90
25963;DHT22;13760;52.588;13.406;2023-10-19T02:27:56;6.90;99.90
25963;DHT22;13760;52.588;13.406;2023-10-19T02:30:22;6.90;99.90
25963;DHT22;13760;52.588;13.406;2023-10-19T02:32:50;6.80;99.90
25963;DHT22;13760;52.588;13.406;2023-10-19T02:35:16;6.80;99.90
25963;DHT22;13760;52.588;13.406;2023-10-19T02:37:41;6.90;99.90
25963;DHT22;13760;52.588;13.406;2023-10-19T02:40:07;6.90;99.90
25963;DHT22;13760;52.588;13.406;2023-10-19T02:42:40;6.90;99.90
25963;DHT22;13760;52.588;13.406;2023-10-19T02:45:07;6.90;99.90
25963;DHT22;13760;52.588;13.406;2023-10-19T02:47:33;6.90;99.90
25963;DHT22;13760;52.588;13.406;2023-10-19T02:49:58;6.90;99.90
25963;DHT22;13760;52.588;13.406;2023-10-19T02:52:24;6.90;99.90
25963;DHT22;13760;52.588;13.406;2023-10-19T02:54:49;6.90;99.90
25963;DHT22;13760;52.588;13.406;2023-10-19T02:57:15;6.90;99.90
25963;DHT22;13760;52.588;13.406;2023-10-19T02:59:40;6.90;99.90
25963;DHT22;13760;52.588;13.406;2023-10-19T03:02:06;6.90;99.90
25963;DHT22;13760;52.588;13.406;2023-10-19T03:04:37;6.90;99.90
25963;DHT22;13760;52.588;13.406;2023-10-19T03:07:04;6.90;99.90
25963;DHT22;13760;52.588;13.406;2023-10-19T03:09:30;6.90;99.90
25963;DHT22;13760;52.588;13.406;2023-10-19T03:11:57;6.90;99.90
25963;DHT22;13760;52.588;13.406;2023-10-19T03:14:29;6.90;99.90
25963;DHT22;13760;52.588;13.406;2023-10-19T03:16:57;7.00;99.90
25963;DHT22;13760;52.588;13.406;2023-10-19T03:19:23;7.00;99.90
25963;DHT22;13760;52.588;13.406;2023-10-19T03:21:52;7.00;99.90
25963;DHT22;13760;52.588;13.406;2023-10-19T03:24:19;7.00;99.90
25963;DHT22;13760;52.588;13.406;2023-10-19T03:27:04;6.90;99.90
25963;DHT22;13760;52.588;13.406;2023-10-19T03:29:47;7.00;99.90
25963;DHT22;13760;52.588;13.406;2023-10-19T03:32:19;7.00;99.90
25963;DHT22;13760;52.588;13.406;2023-10-19T03:34:47;6.90;99.90
25963;DHT22;13760;52.588;13.406;2023-10-19T03:37:14;6.90;99.90
25963;DHT22;13760;52.588;13.406;2023-10-19T03:39:41;7.00;99.90
25963;DHT22;13760;52.588;13.406;2023-10-19T03:42:06;7.00;99.90
25963;DHT22;13760;52.588;13.406;2023-10-19T03:44:33;7.00;99.90
25963;DHT22;13760;52.588;13.406;2023-10-19T03:47:14;7.00;99.90
25963;DHT22;13760;52.588;13.406;2023-10-19T03:49:44;7.00;99.90
25963;DHT22;13760;52.588;13.406;2023-10-19T03:52:10;6.90;99.90
25963;DHT22;13760;52.588;13.406;2023-10-19T03:54:36;7.00;99.90
25963;DHT22;13760;52.588;13.406;2023-10-19T03:57:12;7.00;99.90
25963;DHT22;13760;52.588;13.406;2023-10-19T03:59:39;6.90;99.90
25963;DHT22;13760;52.588;13.406;2023-10-19T04:02:05;6.90;99.90
25963;DHT22;13760;52.588;13.406;2023-10-19T04:04:35;6.90;99.90
25963;DHT22;13760;52.588;13.406;2023-10-19T04:07:00;7.00;99.90
25963;DHT22;13760;52.588;13.406;2023-10-19T04:09:35;7.00;99.90
25963;DHT22;13760;52.588;13.406;2023-10-19T04:12:06;6.90;99.90
25963;DHT22;13760;52.588;13.406;2023-10-19T04:14:32;6.90;99.90
25963;DHT22;13760;52.588;13.406;2023-10-19T04:17:00;6.90;99.90
25963;DHT22;13760;52.588;13.406;2023-10-19T04:19:29;6.90;99.90
25963;DHT22;13760;52.588;13.406;2023-10-19T04:21:57;6.90;99.90
25963;DHT22;13760;52.588;13.406;2023-10-19T04:24:23;6.90;99.90
25963;DHT22;13760;52.588;13.406;2023-10-19T04:26:48;6.90;99.90
25963;DHT22;13760;52.588;13.406;2023-10-19T04:29:14;6.90;99.90
25963;DHT22;13760;52.588;13.406;2023-10-19T04:31:43;6.90;99.90
25963;DHT22;13760;52.588;13.406;2023-10-19T04:34:16;6.90;99.90
25963;DHT22;13760;52.588;13.406;2023-10-19T04:36:45;6.80;99.90
25963;DHT22;13760;52.588;13.406;2023-10-19T04:39:12;6.80;99.90
25963;DHT22;13760;52.588;13.406;2023-10-19T04:41:40;6.80;99.90
25963;DHT22;13760;52.588;13.406;2023-10-19T04:44:06;6.80;99.90
25963;DHT22;13760;52.588;13.406;2023-10-19T04:46:34;6.80;99.90
25963;DHT22;13760;52.588;13.406;2023-10-19T04:49:00;6.80;99.90
25963;DHT22;13760;52.588;13.406;2023-10-19T04:51:25;6.80;99.90
25963;DHT22;13760;52.588;13.406;2023-10-19T04:53:51;6.80;99.90
25963;DHT22;13760;52.588;13.406;2023-10-19T04:56:17;6.80;99.90
25963;DHT22;13760;52.588;13.406;2023-10-19T04:58:42;6.80;99.90
25963;DHT22;13760;52.588;13.406;2023-10-19T05:01:08;6.80;99.90
25963;DHT22;13760;52.588;13.406;2023-10-19T05:03:37;6.80;99.90
25963;DHT22;13760;52.588;13.406;2023-10-19T05:06:03;6.80;99.90
25963;DHT22;13760;52.588;13.406;2023-10-19T05:08:29;6.80;99.90
25963;DHT22;13760;52.588;13.406;2023-10-19T05:10:56;6.80;99.90
25963;DHT22;13760;52.588;13.406;2023-10-19T05:13:23;6.80;99.90
25963;DHT22;13760;52.588;13.406;2023-10-19T05:15:49;6.80;99.90
25963;DHT22;13760;52.588;13.406;2023-10-19T05:18:14;6.80;99.90
25963;DHT22;13760;52.588;13.406;2023-10-19T05:20:40;6.80;99.90
25963;DHT22;13760;52.588;13.406;2023-10-19T05:23:08;6.80;99.90
25963;DHT22;13760;52.588;13.406;2023-10-19T05:25:35;6.80;99.90
25963;DHT22;13760;52.588;13.406;2023-10-19T05:28:05;6.80;99.90
25963;DHT22;13760;52.588;13.406;2023-10-19T05:30:31;6.80;99.90
25963;DHT22;13760;52.588;13.406;2023-10-19T05:32:57;6.70;99.90
25963;DHT22;13760;52.588;13.406;2023-10-19T05:35:25;6.80;99.90
25963;DHT22;13760;52.588;13.406;2023-10-19T05:37:52;6.80;99.90
25963;DHT22;13760;52.588;13.406;2023-10-19T05:40:17;6.80;99.90
25963;DHT22;13760;52.588;13.406;2023-10-19T05:42:44;6.80;99.90
25963;DHT22;13760;52.588;13.406;2023-10-19T05:45:11;6.80;99.90
25963;DHT22;13760;52.588;13.406;2023-10-19T05:47:38;6.80;99.90
25963;DHT22;13760;52.588;13.406;2023-10-19T05:50:04;6.70;99.90
25963;DHT22;13760;52.588;13.406;2023-10-19T05:52:30;6.70;99.90
25963;DHT22;13760;52.588;13.406;2023-10-19T05:54:56;6.70;99.90
25963;DHT22;13760;52.588;13.406;2023-10-19T05:57:24;6.70;99.90
25963;DHT22;13760;52.588;13.406;2023-10-19T05:59:50;6.70;99.90
25963;DHT22;13760;52.588;13.406;2023-10-19T06:02:15;6.70;99.90
25963;DHT22;13760;52.588;13.406;2023-10-19T06:04:43;6.70;99.90
25963;DHT22;13760;52.588;13.406;2023-10-19T06:07:08;6.70;99.90
25963;DHT22;13760;52.588;13.406;2023-10-19T06:09:35;6.70;99.90
25963;DHT22;13760;52.588;13.406;2023-10-19T06:12:01;6.70;99.90
25963;DHT22;13760;52.588;13.406;2023-10-19T06:14:27;6.70;99.90
25963;DHT22;13760;52.588;13.406;2023-10-19T06:16:55;6.60;99.90
25963;DHT22;13760;52.588;13.406;2023-10-19T06:19:21;6.60;99.90
25963;DHT22;13760;52.588;13.406;2023-10-19T06:21:49;6.60;99.90
25963;DHT22;13760;52.588;13.406;2023-10-19T06:24:15;6.60;99.90
25963;DHT22;13760;52.588;13.406;2023-10-19T06:26:42;6.60;99.90
25963;DHT22;13760;52.588;13.406;2023-10-19T06:29:08;6.60;99.90
25963;DHT22;13760;52.588;13.406;2023-10-19T06:31:33;6.60;99.90
25963;DHT22;13760;52.588;13.406;2023-10-19T06:33:59;6.60;99.90
25963;DHT22;13760;52.588;13.406;2023-10-19T06:36:28;6.60;99.90
25963;DHT22;13760;52.588;13.406;2023-10-19T06:38:54;6.60;99.90
25963;DHT22;13760;52.588;13.406;2023-10-19T06:41:20;6.60;99.90
25963;DHT22;13760;52.588;13.406;2023-10-19T06:43:46;6.60;99.90
25963;DHT22;13760;52.588;13.406;2023-10-19T06:46:11;6.50;99.90
25963;DHT22;13760;52.588;13.406;2023-10-19T06:48:37;6.50;99.90
25963;DHT22;13760;52.588;13.406;2023-10-19T06:51:03;6.50;99.90
25963;DHT22;13760;52.588;13.406;2023-10-19T06:53:30;6.50;99.90
25963;DHT22;13760;52.588;13.406;2023-10-19T06:55:56;6.50;99.90
25963;DHT22;13760;52.588;13.406;2023-10-19T06:58:22;6.50;99.90
25963;DHT22;13760;52.588;13.406;2023-10-19T07:00:52;6.50;99.90
25963;DHT22;13760;52.588;13.406;2023-10-19T07:03:33;6.50;99.90
25963;DHT22;13760;52.588;13.406;2023-10-19T07:05:58;6.50;99.90
25963;DHT22;13760;52.588;13.406;2023-10-19T07:08:25;6.60;99.90
25963;DHT22;13760;52.588;13.406;2023-10-19T07:10:52;6.60;99.90
25963;DHT22;13760;52.588;13.406;2023-10-19T07:13:19;6.60;99.90
25963;DHT22;13760;52.588;13.406;2023-10-19T07:15:47;6.60;99.90
25963;DHT22;13760;52.588;13.406;2023-10-19T07:18:13;6.60;99.90
25963;DHT22;13760;52.588;13.406;2023-10-19T07:20:39;6.60;99.90
25963;DHT22;13760;52.588;13.406;2023-10-19T07:23:05;6.60;99.90
25963;DHT22;13760;52.588;13.406;2023-10-19T07:25:52;6.60;99.90
25963;DHT22;13760;52.588;13.406;2023-10-19T07:28:22;6.70;99.90
25963;DHT22;13760;52.588;13.406;2023-10-19T07:30:48;6.60;99.90
25963;DHT22;13760;52.588;13.406;2023-10-19T07:33:14;6.60;99.90
25963;DHT22;13760;52.588;13.406;2023-10-19T07:35:44;6.70;99.90
25963;DHT22;13760;52.588;13.406;2023-10-19T07:38:13;6.70;99.90
25963;DHT22;13760;52.588;13.406;2023-10-19T07:40:39;6.70;99.90
25963;DHT22;13760;52.588;13.406;2023-10-19T07:43:05;6.70;99.90
25963;DHT22;13760;52.588;13.406;2023-10-19T07:45:31;6.70;99.90
25963;DHT22;13760;52.588;13.406;2023-10-19T07:47:57;6.70;99.90
25963;DHT22;13760;52.588;13.406;2023-10-19T07:50:23;6.70;99.90
25963;DHT22;13760;52.588;13.406;2023-10-19T07:52:53;6.80;99.90
25963;DHT22;13760;52.588;13.406;2023-10-19T07:55:21;6.70;99.90
25963;DHT22;13760;52.588;13.406;2023-10-19T07:57:52;6.80;99.90
25963;DHT22;13760;52.588;13.406;2023-10-19T08:00:20;6.80;99.90
25963;DHT22;13760;52.588;13.406;2023-10-19T08:02:45;6.80;99.90
25963;DHT22;13760;52.588;13.406;2023-10-19T08:05:15;6.80;99.90
25963;DHT22;13760;52.588;13.406;2023-10-19T08:07:41;6.80;99.90
25963;DHT22;13760;52.588;13.406;2023-10-19T08:10:11;6.90;99.90
25963;DHT22;13760;52.588;13.406;2023-10-19T08:12:38;6.90;99.90
25963;DHT22;13760;52.588;13.406;2023-10-19T08:15:10;6.90;99.90
25963;DHT22;13760;52.588;13.406;2023-10-19T08:17:40;6.90;99.90
25963;DHT22;13760;52.588;13.406;2023-10-19T08:20:06;7.00;99.90
25963;DHT22;13760;52.588;13.406;2023-10-19T08:22:35;7.00;99.90
25963;DHT22;13760;52.588;13.406;2023-10-19T08:25:02;7.00;99.90
25963;DHT22;13760;52.588;13.406;2023-10-19T08:27:29;7.00;99.90
25963;DHT22;13760;52.588;13.406;2023-10-19T08:29:55;7.00;99.90
25963;DHT22;13760;52.588;13.406;2023-10-19T08:32:21;7.00;99.90
25963;DHT22;13760;52.588;13.406;2023-10-19T08:34:46;7.00;99.90
25963;DHT22;13760;52.588;13.406;2023-10-19T08:37:12;7.10;99.90
25963;DHT22;13760;52.588;13.406;2023-10-19T08:39:38;7.10;99.90
25963;DHT22;13760;52.588;13.406;2023-10-19T08:42:04;7.10;99.90
25963;DHT22;13760;52.588;13.406;2023-10-19T08:44:31;7.10;99.90
25963;DHT22;13760;52.588;13.406;2023-10-19T08:46:57;7.20;99.90
25963;DHT22;13760;52.588;13.406;2023-10-19T08:49:23;7.20;99.90
25963;DHT22;13760;52.588;13.406;2023-10-19T08:51:49;7.20;99.90
25963;DHT22;13760;52.588;13.406;2023-10-19T08:54:17;7.20;99.90
25963;DHT22;13760;52.588;13.406;2023-10-19T08:56:42;7.30;99.90
25963;DHT22;13760;52.588;13.406;2023-10-19T08:59:10;7.30;99.90
25963;DHT22;13760;52.588;13.406;2023-10-19T09:01:38;7.30;99.90
25963;DHT22;13760;52.588;13.406;2023-10-19T09:04:04;7.40;99.90
25963;DHT22;13760;52.588;13.406;2023-10-19T09:06:37;7.40;99.90
25963;DHT22;13760;52.588;13.406;2023-10-19T09:09:11;7.50;99.90
25963;DHT22;13760;52.588;13.406;2023-10-19T09:11:48;7.50;99.90
25963;DHT22;13760;52.588;13.406;2023-10-19T09:14:15;7.60;99.90
25963;DHT22;13760;52.588;13.406;2023-10-19T09:16:56;7.60;99.90
25963;DHT22;13760;52.588;13.406;2023-10-19T09:19:39;7.60;99.90
25963;DHT22;13760;52.588;13.406;2023-10-19T09:22:06;7.60;99.90
25963;DHT22;13760;52.588;13.406;2023-10-19T09:24:45;7.60;99.90
25963;DHT22;13760;52.588;13.406;2023-10-19T09:27:12;7.60;99.90
25963;DHT22;13760;52.588;13.406;2023-10-19T09:29:39;7.60;99.90
25963;DHT22;13760;52.588;13.406;2023-10-19T09:32:07;7.60;99.90
25963;DHT22;13760;52.588;13.406;2023-10-19T09:34:34;7.60;99.90
25963;DHT22;13760;52.588;13.406;2023-10-19T09:37:00;7.60;99.90
25963;DHT22;13760;52.588;13.406;2023-10-19T09:39:29;7.60;99.90
25963;DHT22;13760;52.588;13.406;2023-10-19T09:42:07;7.60;99.90
25963;DHT22;13760;52.588;13.406;2023-10-19T09:44:44;7.70;99.90
25963;DHT22;13760;52.588;13.406;2023-10-19T09:47:20;7.60;99.90
25963;DHT22;13760;52.588;13.406;2023-10-19T09:49:49;7.60;99.90
25963;DHT22;13760;52.588;13.406;2023-10-19T09:52:16;7.70;99.90
25963;DHT22;13760;52.588;13.406;2023-10-19T09:57:39;7.70;99.90
25963;DHT22;13760;52.588;13.406;2023-10-19T10:00:08;7.70;99.90
25963;DHT22;13760;52.588;13.406;2023-10-19T10:02:42;7.70;99.90
25963;DHT22;13760;52.588;13.406;2023-10-19T10:10:46;7.70;99.90
25963;DHT22;13760;52.588;13.406;2023-10-19T10:15:53;7.80;99.90
25963;DHT22;13760;52.588;13.406;2023-10-19T10:18:20;7.80;99.90
25963;DHT22;13760;52.588;13.406;2023-10-19T10:20:46;7.90;99.90
25963;DHT22;13760;52.588;13.406;2023-10-19T10:23:24;7.90;99.90
25963;DHT22;13760;52.588;13.406;2023-10-19T10:25:58;7.80;99.90
25963;DHT22;13760;52.588;13.406;2023-10-19T10:28:24;7.80;99.90
25963;DHT22;13760;52.588;13.406;2023-10-19T10:33:45;7.80;99.90
25963;DHT22;13760;52.588;13.406;2023-10-19T10:36:15;7.80;99.90
25963;DHT22;13760;52.588;13.406;2023-10-19T10:38:42;7.80;99.90
25963;DHT22;13760;52.588;13.406;2023-10-19T10:41:13;7.80;99.90
25963;DHT22;13760;52.588;13.406;2023-10-19T10:44:00;7.80;99.90
25963;DHT22;13760;52.588;13.406;2023-10-19T10:46:46;7.80;99.90
25963;DHT22;13760;52.588;13.406;2023-10-19T10:49:15;7.90;99.90
25963;DHT22;13760;52.588;13.406;2023-10-19T10:51:41;7.80;99.90
25963;DHT22;13760;52.588;13.406;2023-10-19T10:54:07;7.80;99.90
25963;DHT22;13760;52.588;13.406;2023-10-19T10:56:40;7.80;99.90
25963;DHT22;13760;52.588;13.406;2023-10-19T10:59:13;7.80;99.90
25963;DHT22;13760;52.588;13.406;2023-10-19T11:01:38;7.80;99.90
25963;DHT22;13760;52.588;13.406;2023-10-19T11:04:09;7.80;99.90
25963;DHT22;13760;52.588;13.406;2023-10-19T11:06:52;7.80;99.90
25963;DHT22;13760;52.588;13.406;2023-10-19T11:09:20;7.80;99.90
25963;DHT22;13760;52.588;13.406;2023-10-19T11:11:47;7.80;99.90
25963;DHT22;13760;52.588;13.406;2023-10-19T11:14:15;7.70;99.90
25963;DHT22;13760;52.588;13.406;2023-10-19T11:16:41;7.80;99.90
25963;DHT22;13760;52.588;13.406;2023-10-19T11:19:08;7.80;99.90
25963;DHT22;13760;52.588;13.406;2023-10-19T11:21:35;7.80;99.90
25963;DHT22;13760;52.588;13.406;2023-10-19T11:24:01;7.80;99.90
25963;DHT22;13760;52.588;13.406;2023-10-19T11:26:27;7.80;99.90
25963;DHT22;13760;52.588;13.406;2023-10-19T11:29:00;7.80;99.90
25963;DHT22;13760;52.588;13.406;2023-10-19T11:31:26;7.80;99.90
25963;DHT22;13760;52.588;13.406;2023-10-19T11:33:54;7.80;99.90
25963;DHT22;13760;52.588;13.406;2023-10-19T11:36:23;7.80;99.90
25963;DHT22;13760;52.588;13.406;2023-10-19T11:38:51;7.90;99.90
25963;DHT22;13760;52.588;13.406;2023-10-19T11:41:17;7.80;99.90
25963;DHT22;13760;52.588;13.406;2023-10-19T11:43:44;7.90;99.90
25963;DHT22;13760;52.588;13.406;2023-10-19T11:46:11;7.80;99.90
25963;DHT22;13760;52.588;13.406;2023-10-19T11:48:50;7.80;99.90
25963;DHT22;13760;52.588;13.406;2023-10-19T11:51:16;7.80;99.90
25963;DHT22;13760;52.588;13.406;2023-10-19T11:53:42;7.80;99.90
25963;DHT22;13760;52.588;13.406;2023-10-19T11:56:10;7.80;99.90
25963;DHT22;13760;52.588;13.406;2023-10-19T11:58:38;7.80;99.90
25963;DHT22;13760;52.588;13.406;2023-10-19T12:01:06;7.80;99.90
25963;DHT22;13760;52.588;13.406;2023-10-19T12:03:34;7.80;99.90
25963;DHT22;13760;52.588;13.406;2023-10-19T12:06:03;7.80;99.90
25963;DHT22;13760;52.588;13.406;2023-10-19T12:08:32;7.70;99.90
25963;DHT22;13760;52.588;13.406;2023-10-19T12:10:57;7.70;99.90
25963;DHT22;13760;52.588;13.406;2023-10-19T12:13:23;7.70;99.90
25963;DHT22;13760;52.588;13.406;2023-10-19T12:15:49;7.70;99.90
25963;DHT22;13760;52.588;13.406;2023-10-19T12:18:23;7.70;99.90
25963;DHT22;13760;52.588;13.406;2023-10-19T12:20:48;7.70;99.90
25963;DHT22;13760;52.588;13.406;2023-10-19T12:23:14;7.70;99.90
25963;DHT22;13760;52.588;13.406;2023-10-19T12:25:40;7.70;99.90
25963;DHT22;13760;52.588;13.406;2023-10-19T12:28:08;7.70;99.90
25963;DHT22;13760;52.588;13.406;2023-10-19T12:30:33;7.70;99.90
25963;DHT22;13760;52.588;13.406;2023-10-19T12:33:05;7.70;99.90
25963;DHT22;13760;52.588;13.406;2023-10-19T12:35:37;7.70;99.90
25963;DHT22;13760;52.588;13.406;2023-10-19T12:38:19;7.70;99.90
25963;DHT22;13760;52.588;13.406;2023-10-19T12:40:49;7.70;99.90
25963;DHT22;13760;52.588;13.406;2023-10-19T12:43:16;7.70;99.90
25963;DHT22;13760;52.588;13.406;2023-10-19T12:45:44;7.70;99.90
25963;DHT22;13760;52.588;13.406;2023-10-19T12:48:16;7.70;99.90
25963;DHT22;13760;52.588;13.406;2023-10-19T12:50:41;7.70;99.90
25963;DHT22;13760;52.588;13.406;2023-10-19T12:53:07;7.70;99.90
25963;DHT22;13760;52.588;13.406;2023-10-19T12:55:34;7.70;99.90
25963;DHT22;13760;52.588;13.406;2023-10-19T12:58:00;7.70;99.90
25963;DHT22;13760;52.588;13.406;2023-10-19T13:00:35;7.70;99.90
25963;DHT22;13760;52.588;13.406;2023-10-19T13:03:04;7.70;99.90
25963;DHT22;13760;52.588;13.406;2023-10-19T13:05:37;7.70;99.90
25963;DHT22;13760;52.588;13.406;2023-10-19T13:08:05;7.70;99.90
25963;DHT22;13760;52.588;13.406;2023-10-19T13:10:32;7.70;99.90
25963;DHT22;13760;52.588;13.406;2023-10-19T13:13:02;7.70;99.90
25963;DHT22;13760;52.588;13.406;2023-10-19T13:15:36;7.70;99.90
25963;DHT22;13760;52.588;13.406;2023-10-19T13:18:02;7.70;99.90
25963;DHT22;13760;52.588;13.406;2023-10-19T13:20:32;7.70;99.90
25963;DHT22;13760;52.588;13.406;2023-10-19T13:23:06;7.70;99.90
25963;DHT22;13760;52.588;13.406;2023-10-19T13:25:37;7.70;99.90
25963;DHT22;13760;52.588;13.406;2023-10-19T13:28:08;7.70;99.90
25963;DHT22;13760;52.588;13.406;2023-10-19T13:30:42;7.70;99.90
25963;DHT22;13760;52.588;13.406;2023-10-19T13:33:10;7.70;99.90
25963;DHT22;13760;52.588;13.406;2023-10-19T13:35:36;7.60;99.90
25963;DHT22;13760;52.588;13.406;2023-10-19T13:38:03;7.60;99.90
25963;DHT22;13760;52.588;13.406;2023-10-19T13:40:29;7.60;99.90
25963;DHT22;13760;52.588;13.406;2023-10-19T13:43:02;7.60;99.90
25963;DHT22;13760;52.588;13.406;2023-10-19T13:45:36;7.60;99.90
25963;DHT22;13760;52.588;13.406;2023-10-19T13:48:03;7.60;99.90
25963;DHT22;13760;52.588;13.406;2023-10-19T13:50:33;7.60;99.90
25963;DHT22;13760;52.588;13.406;2023-10-19T13:52:59;7.70;99.90
25963;DHT22;13760;52.588;13.406;2023-10-19T13:55:27;7.70;99.90
25963;DHT22;13760;52.588;13.406;2023-10-19T13:57:53;7.70;99.90
25963;DHT22;13760;52.588;13.406;2023-10-19T14:00:22;7.60;99.90
25963;DHT22;13760;52.588;13.406;2023-10-19T14:03:01;7.60;99.90
25963;DHT22;13760;52.588;13.406;2023-10-19T14:05:30;7.70;99.90
25963;DHT22;13760;52.588;13.406;2023-10-19T14:08:01;7.70;99.90
25963;DHT22;13760;52.588;13.406;2023-10-19T14:10:29;7.70;99.90
25963;DHT22;13760;52.588;13.406;2023-10-19T14:12:54;7.70;99.90
25963;DHT22;13760;52.588;13.406;2023-10-19T14:15:21;7.70;99.90
25963;DHT22;13760;52.588;13.406;2023-10-19T14:17:47;7.60;99.90
25963;DHT22;13760;52.588;13.406;2023-10-19T14:20:15;7.60;99.90
25963;DHT22;13760;52.588;13.406;2023-10-19T14:22:43;7.70;99.90
25963;DHT22;13760;52.588;13.406;2023-10-19T14:25:10;7.70;99.90
25963;DHT22;13760;52.588;13.406;2023-10-19T14:27:46;7.60;99.90
25963;DHT22;13760;52.588;13.406;2023-10-19T14:30:15;7.60;99.90
25963;DHT22;13760;52.588;13.406;2023-10-19T14:32:48;7.60;99.90
25963;DHT22;13760;52.588;13.406;2023-10-19T14:35:18;7.60;99.90
25963;DHT22;13760;52.588;13.406;2023-10-19T14:37:49;7.60;99.90
25963;DHT22;13760;52.588;13.406;2023-10-19T14:40:17;7.60;99.90
25963;DHT22;13760;52.588;13.406;2023-10-19T14:42:45;7.60;99.90
25963;DHT22;13760;52.588;13.406;2023-10-19T14:45:16;7.50;99.90
25963;DHT22;13760;52.588;13.406;2023-10-19T14:47:46;7.60;99.90
25963;DHT22;13760;52.588;13.406;2023-10-19T14:50:13;7.60;99.90
25963;DHT22;13760;52.588;13.406;2023-10-19T14:52:45;7.60;99.90
25963;DHT22;13760;52.588;13.406;2023-10-19T14:55:11;7.60;99.90
25963;DHT22;13760;52.588;13.406;2023-10-19T14:57:39;7.60;99.90
25963;DHT22;13760;52.588;13.406;2023-10-19T15:00:09;7.60;99.90
25963;DHT22;13760;52.588;13.406;2023-10-19T15:02:48;7.60;99.90
25963;DHT22;13760;52.588;13.406;2023-10-19T15:05:15;7.50;99.90
25963;DHT22;13760;52.588;13.406;2023-10-19T15:07:46;7.60;99.90
25963;DHT22;13760;52.588;13.406;2023-10-19T15:10:24;7.60;99.90
25963;DHT22;13760;52.588;13.406;2023-10-19T15:12:57;7.60;99.90
25963;DHT22;13760;52.588;13.406;2023-10-19T15:15:30;7.60;99.90
25963;DHT22;13760;52.588;13.406;2023-10-19T15:17:57;7.50;99.90
25963;DHT22;13760;52.588;13.406;2023-10-19T15:20:33;7.50;99.90
25963;DHT22;13760;52.588;13.406;2023-10-19T15:23:00;7.50;99.90
25963;DHT22;13760;52.588;13.406;2023-10-19T15:25:41;7.50;99.90
25963;DHT22;13760;52.588;13.406;2023-10-19T15:28:07;7.50;99.90
25963;DHT22;13760;52.588;13.406;2023-10-19T15:30:33;7.50;99.90
25963;DHT22;13760;52.588;13.406;2023-10-19T15:32:59;7.50;99.90
25963;DHT22;13760;52.588;13.406;2023-10-19T15:35:25;7.50;99.90
25963;DHT22;13760;52.588;13.406;2023-10-19T15:37:53;7.50;99.90
25963;DHT22;13760;52.588;13.406;2023-10-19T15:40:22;7.50;99.90
25963;DHT22;13760;52.588;13.406;2023-10-19T15:42:49;7.50;99.90
25963;DHT22;13760;52.588;13.406;2023-10-19T15:45:15;7.50;99.90
25963;DHT22;13760;52.588;13.406;2023-10-19T15:47:44;7.50;99.90
25963;DHT22;13760;52.588;13.406;2023-10-19T15:50:11;7.50;99.90
25963;DHT22;13760;52.588;13.406;2023-10-19T15:52:41;7.50;99.90
25963;DHT22;13760;52.588;13.406;2023-10-19T15:55:13;7.50;99.90